Time;durP1;ratioP1;P1;durP2;ratioP2;P2;SDS_P1;SDS_P2;PMS_P1;PMS_P2;Temp;Humidity;BMP_temperature;BMP_pressure;BME280_temperature;BME280_humidity;BME280_pressure;Samples;Min_cycle;Max_cycle;Signal;HPM_P1;HPM_P2
2022/12/08 00:01:32;;;;;;;5.18;2.67;;;3.20;95.80;;;;;;5075217;28;20027;-73
2022/12/08 00:03:59;;;;;;;4.47;2.38;;;3.20;95.80;;;;;;5074957;28;20122;-73
2022/12/08 00:09:21;;;;;;;10.57;2.70;;;3.30;95.80;;;;;;5070366;28;20579;-73
2022/12/08 00:12:09;;;;;;;5.03;2.28;;;3.30;95.60;;;;;;5072969;28;20039;-73
2022/12/08 00:14:42;;;;;;;5.78;2.40;;;3.30;95.70;;;;;;5065914;28;20090;-73
2022/12/08 00:17:10;;;;;;;5.03;2.42;;;3.30;95.80;;;;;;5068376;28;20029;-73
2022/12/08 00:19:38;;;;;;;5.53;2.15;;;3.30;95.80;;;;;;5076746;28;20475;-72
2022/12/08 00:22:05;;;;;;;3.90;2.33;;;3.40;95.70;;;;;;5076070;28;20028;-73
2022/12/08 00:24:34;;;;;;;5.75;2.60;;;3.40;95.70;;;;;;5072779;28;20020;-73
2022/12/08 00:27:00;;;;;;;5.43;2.85;;;3.40;95.60;;;;;;5070059;28;20039;-72
2022/12/08 00:29:26;;;;;;;4.43;2.58;;;3.40;95.60;;;;;;5071810;28;20555;-73
2022/12/08 00:31:52;;;;;;;5.13;2.25;;;3.40;95.50;;;;;;5070162;28;20033;-73
2022/12/08 00:34:18;;;;;;;4.47;2.35;;;3.40;95.50;;;;;;5067132;28;20032;-72
2022/12/08 00:36:45;;;;;;;5.13;2.33;;;3.50;95.60;;;;;;5074131;28;20055;-73
2022/12/08 00:39:13;;;;;;;4.95;2.20;;;3.50;95.60;;;;;;5073076;28;20028;-73
2022/12/08 00:44:23;;;;;;;3.20;2.05;;;3.60;95.50;;;;;;5068640;28;20069;-73
2022/12/08 00:46:49;;;;;;;3.42;2.28;;;3.60;95.40;;;;;;5068459;28;20033;-72
2022/12/08 00:49:16;;;;;;;4.05;2.50;;;3.60;95.30;;;;;;5075649;28;20036;-72
2022/12/08 00:51:43;;;;;;;4.82;2.63;;;3.60;95.30;;;;;;5069851;28;20032;-73
2022/12/08 00:54:09;;;;;;;7.60;3.08;;;3.60;95.30;;;;;;5063011;28;20134;-72
2022/12/08 00:56:36;;;;;;;4.85;2.92;;;3.60;95.40;;;;;;5071948;28;20036;-72
2022/12/08 00:59:03;;;;;;;6.65;2.60;;;3.70;95.40;;;;;;5074715;28;20606;-72
2022/12/08 01:01:29;;;;;;;7.78;3.25;;;3.70;95.30;;;;;;5079435;28;20111;-72
2022/12/08 01:03:55;;;;;;;8.55;3.50;;;3.80;95.40;;;;;;5066344;28;20036;-73
2022/12/08 01:06:21;;;;;;;7.70;3.40;;;3.80;95.40;;;;;;5069243;28;20033;-73
2022/12/08 01:08:47;;;;;;;8.38;3.65;;;3.80;95.40;;;;;;5072479;28;20135;-72
2022/12/08 01:11:15;;;;;;;8.80;4.07;;;3.80;95.30;;;;;;5066885;28;20043;-72
2022/12/08 01:13:41;;;;;;;7.63;3.75;;;3.80;95.20;;;;;;5066761;28;20076;-73
2022/12/08 01:16:07;;;;;;;10.00;4.43;;;3.80;95.30;;;;;;5074870;28;20028;-72
2022/12/08 01:18:34;;;;;;;8.07;3.95;;;3.70;95.50;;;;;;5076007;28;20023;-72
2022/12/08 01:21:07;;;;;;;8.63;4.82;;;3.70;95.60;;;;;;5068277;28;20036;-73
2022/12/08 01:23:34;;;;;;;9.57;4.28;;;3.70;95.60;;;;;;5067891;28;20027;-72
2022/12/08 01:26:07;;;;;;;8.38;4.30;;;3.60;95.60;;;;;;5071588;28;20032;-73
2022/12/08 01:28:33;;;;;;;8.52;4.55;;;3.60;95.70;;;;;;5073319;28;20473;-72
2022/12/08 01:31:01;;;;;;;10.30;4.22;;;3.60;95.70;;;;;;5066836;28;20029;-72
2022/12/08 01:33:27;;;;;;;7.97;4.70;;;3.60;95.70;;;;;;5074675;28;20096;-73
2022/12/08 01:35:54;;;;;;;8.80;4.90;;;3.60;95.70;;;;;;5071613;28;20024;-72
2022/12/08 01:38:21;;;;;;;10.38;5.13;;;3.50;96.00;;;;;;5075584;28;20024;-73
2022/12/08 01:40:47;;;;;;;8.20;4.70;;;3.50;96.20;;;;;;5065823;28;20055;-72
2022/12/08 01:43:17;;;;;;;11.25;4.85;;;3.50;96.30;;;;;;5071658;28;20060;-72
2022/12/08 01:45:43;;;;;;;7.03;4.00;;;3.50;96.40;;;;;;5071456;28;20506;-72
2022/12/08 01:48:18;;;;;;;10.45;5.28;;;3.50;96.30;;;;;;5067709;28;20079;-73
2022/12/08 01:50:46;;;;;;;8.90;5.05;;;3.50;96.20;;;;;;5065946;28;20023;-72
2022/12/08 01:53:37;;;;;;;10.50;4.47;;;3.40;96.40;;;;;;5072137;28;20440;-72
2022/12/08 01:56:16;;;;;;;7.85;4.53;;;3.40;96.80;;;;;;5077694;28;20032;-73
2022/12/08 01:58:47;;;;;;;9.05;3.97;;;3.40;96.90;;;;;;5073279;28;20448;-72
2022/12/08 02:01:13;;;;;;;8.55;4.38;;;3.40;96.80;;;;;;5072994;28;20032;-72
2022/12/08 02:03:45;;;;;;;8.25;4.93;;;3.50;96.80;;;;;;5078274;28;20043;-72
2022/12/08 02:06:11;;;;;;;8.13;4.43;;;3.50;96.90;;;;;;5071677;28;20040;-72
2022/12/08 02:08:39;;;;;;;7.70;3.72;;;3.50;96.70;;;;;;5063857;28;20032;-72
2022/12/08 02:11:07;;;;;;;7.72;4.00;;;3.50;96.60;;;;;;5072525;28;20040;-73
2022/12/08 02:13:33;;;;;;;6.38;3.85;;;3.50;96.50;;;;;;5076243;28;20028;-72
2022/12/08 02:16:05;;;;;;;6.47;4.00;;;3.50;96.60;;;;;;5074038;28;20107;-73
2022/12/08 02:19:09;;;;;;;9.05;3.60;;;3.50;96.70;;;;;;5070388;28;20066;-72
2022/12/08 02:22:03;;;;;;;7.75;3.22;;;3.40;96.80;;;;;;5040170;28;20515;-72
2022/12/08 02:24:43;;;;;;;5.97;3.50;;;3.40;97.00;;;;;;5072225;28;20031;-72
2022/12/08 02:27:30;;;;;;;6.20;3.50;;;3.40;97.10;;;;;;5067689;28;20040;-72
2022/12/08 02:30:14;;;;;;;7.75;3.50;;;3.40;97.10;;;;;;5073728;28;20040;-72
2022/12/08 02:32:58;;;;;;;5.35;2.95;;;3.40;97.40;;;;;;5069883;28;20116;-72
2022/12/08 02:35:29;;;;;;;3.70;2.65;;;3.40;97.40;;;;;;5073677;28;20025;-72
2022/12/08 02:38:13;;;;;;;5.80;3.20;;;3.40;97.50;;;;;;5069991;28;20021;-73
2022/12/08 02:40:44;;;;;;;4.78;2.65;;;3.30;97.50;;;;;;5074141;28;20148;-72
2022/12/08 02:43:19;;;;;;;4.05;2.58;;;3.30;97.70;;;;;;5069297;28;20068;-72
2022/12/08 02:45:51;;;;;;;3.67;2.40;;;3.30;97.70;;;;;;5067652;28;20043;-72
2022/12/08 02:48:17;;;;;;;6.13;2.88;;;3.30;97.60;;;;;;5067517;28;20067;-71
2022/12/08 02:50:42;;;;;;;4.85;2.58;;;3.40;97.40;;;;;;5071356;28;20052;-72
2022/12/08 02:53:09;;;;;;;6.82;2.80;;;3.40;97.10;;;;;;5067728;28;20016;-73
2022/12/08 02:55:52;;;;;;;7.63;2.85;;;3.40;97.00;;;;;;5068685;28;20414;-72
2022/12/08 02:58:42;;;;;;;3.97;2.92;;;3.30;97.40;;;;;;5065174;28;20845;-73
2022/12/08 03:01:25;;;;;;;5.72;2.67;;;3.10;98.00;;;;;;5072068;28;20110;-72
2022/12/08 03:04:00;;;;;;;4.57;3.03;;;3.10;98.30;;;;;;5067875;28;20036;-72
2022/12/08 03:07:04;;;;;;;10.45;3.83;;;3.20;98.20;;;;;;5062925;28;20035;-72
2022/12/08 03:09:52;;;;;;;6.90;3.60;;;3.40;98.00;;;;;;5070948;28;20032;-72
2022/12/08 03:12:35;;;;;;;7.22;4.10;;;3.20;98.10;;;;;;5068450;28;20028;-72
2022/12/08 03:15:07;;;;;;;8.77;4.38;;;3.20;98.40;;;;;;5065194;28;20110;-72
2022/12/08 03:17:35;;;;;;;7.50;4.30;;;3.20;98.50;;;;;;5063159;28;20042;-72
2022/12/08 03:20:07;;;;;;;11.00;4.80;;;3.30;98.50;;;;;;5066611;28;20056;-72
2022/12/08 03:22:33;;;;;;;10.88;5.40;;;3.20;98.60;;;;;;5065664;28;20031;-72
2022/12/08 03:25:00;;;;;;;13.55;6.70;;;3.20;98.70;;;;;;5067415;28;20037;-72
2022/12/08 03:27:28;;;;;;;10.15;5.50;;;3.20;98.80;;;;;;5073507;28;20044;-72
2022/12/08 03:29:56;;;;;;;13.00;4.30;;;3.20;99.00;;;;;;5073134;28;20028;-73
2022/12/08 03:32:51;;;;;;;12.65;6.25;;;3.30;98.70;;;;;;5070798;28;20036;-72
2022/12/08 03:35:23;;;;;;;14.15;5.32;;;3.40;98.30;;;;;;5066780;28;20032;-72
2022/12/08 03:37:49;;;;;;;10.23;5.25;;;3.50;98.20;;;;;;5066143;28;20526;-72
2022/12/08 03:40:17;;;;;;;17.33;6.10;;;3.50;98.10;;;;;;5067839;28;20025;-72
2022/12/08 03:42:43;;;;;;;15.55;7.53;;;3.40;98.40;;;;;;5062270;28;20066;-72
2022/12/08 03:45:09;;;;;;;20.92;8.30;;;3.20;98.80;;;;;;5065755;28;20032;-72
2022/12/08 03:47:35;;;;;;;12.52;7.13;;;3.10;99.40;;;;;;5071557;28;20028;-72
2022/12/08 03:50:01;;;;;;;16.15;6.95;;;3.00;99.60;;;;;;5071541;28;20044;-73
2022/12/08 03:52:27;;;;;;;16.30;7.40;;;3.00;99.80;;;;;;5067976;28;20036;-72
2022/12/08 03:54:53;;;;;;;17.58;7.72;;;3.00;99.90;;;;;;5064174;28;20103;-72
2022/12/08 03:57:18;;;;;;;16.48;8.43;;;3.10;99.90;;;;;;5069969;28;20480;-73
2022/12/08 03:59:44;;;;;;;16.95;8.20;;;3.10;99.90;;;;;;5072980;28;20032;-72
2022/12/08 04:02:10;;;;;;;16.58;8.20;;;3.00;99.90;;;;;;5067904;28;20127;-73
2022/12/08 04:04:36;;;;;;;15.93;8.85;;;3.00;99.90;;;;;;5070947;28;20667;-72
2022/12/08 04:07:01;;;;;;;20.02;9.48;;;3.10;99.90;;;;;;5071968;28;20032;-75
2022/12/08 04:09:27;;;;;;;16.83;9.13;;;3.10;99.90;;;;;;5075805;28;20062;-75
2022/12/08 04:11:53;;;;;;;17.42;8.57;;;3.10;99.90;;;;;;5081352;28;20127;-75
2022/12/08 04:14:19;;;;;;;19.70;9.57;;;3.00;99.90;;;;;;5077307;28;20062;-75
2022/12/08 04:16:44;;;;;;;20.55;9.13;;;3.00;99.90;;;;;;5071617;28;20034;-75
2022/12/08 04:19:10;;;;;;;21.70;8.82;;;3.20;99.90;;;;;;5071724;28;20055;-73
2022/12/08 04:21:36;;;;;;;20.10;9.27;;;3.20;99.70;;;;;;5066078;28;20024;-75
2022/12/08 04:24:02;;;;;;;19.45;9.55;;;3.20;99.90;;;;;;5075038;28;20385;-75
2022/12/08 04:26:28;;;;;;;19.80;9.60;;;3.20;99.90;;;;;;5075800;28;20144;-75
2022/12/08 04:28:53;;;;;;;18.52;9.60;;;3.20;99.90;;;;;;5072064;28;20031;-75
2022/12/08 04:31:20;;;;;;;22.77;9.48;;;3.30;99.90;;;;;;5068504;28;20028;-72
2022/12/08 04:33:47;;;;;;;20.35;9.75;;;3.30;99.70;;;;;;5071621;28;20562;-72
2022/12/08 04:36:13;;;;;;;17.15;9.45;;;3.30;99.60;;;;;;5072080;28;20581;-72
2022/12/08 04:38:39;;;;;;;19.88;9.63;;;3.30;99.90;;;;;;5069722;28;20024;-72
2022/12/08 04:41:05;;;;;;;18.60;9.93;;;3.30;99.90;;;;;;5069389;28;20039;-74
2022/12/08 04:43:31;;;;;;;21.55;8.95;;;3.20;99.90;;;;;;5074366;28;20020;-73
2022/12/08 04:45:56;;;;;;;21.23;9.82;;;3.20;99.90;;;;;;5073608;28;20031;-72
2022/12/08 04:48:23;;;;;;;24.65;10.82;;;3.20;99.90;;;;;;5073038;28;20037;-72
2022/12/08 04:50:48;;;;;;;21.77;10.18;;;3.20;99.90;;;;;;5065977;28;20504;-72
2022/12/08 04:53:14;;;;;;;26.38;9.52;;;3.30;99.90;;;;;;5070804;28;20078;-72
2022/12/08 04:55:43;;;;;;;22.13;9.38;;;3.40;99.90;;;;;;5072468;28;20054;-72
2022/12/08 04:58:14;;;;;;;25.10;9.60;;;3.40;99.90;;;;;;5067519;28;20178;-72
2022/12/08 05:00:40;;;;;;;22.42;10.43;;;3.40;99.90;;;;;;5074758;28;20039;-73
2022/12/08 05:03:06;;;;;;;22.08;10.65;;;3.50;99.80;;;;;;5077048;28;20044;-72
2022/12/08 05:05:32;;;;;;;22.38;10.15;;;3.40;99.90;;;;;;5074073;28;20072;-72
2022/12/08 05:07:58;;;;;;;17.98;9.80;;;3.50;99.90;;;;;;5071003;28;20036;-74
2022/12/08 05:10:24;;;;;;;20.75;10.55;;;3.30;99.90;;;;;;5066590;28;20036;-66
2022/12/08 05:12:51;;;;;;;18.25;10.55;;;3.30;99.90;;;;;;5070096;28;20093;-73
2022/12/08 05:15:17;;;;;;;18.48;10.13;;;3.30;99.90;;;;;;5073681;28;20032;-73
2022/12/08 05:17:43;;;;;;;21.80;10.40;;;3.20;99.90;;;;;;5062681;28;20051;-75
2022/12/08 05:20:09;;;;;;;24.60;10.05;;;3.10;99.90;;;;;;5072567;28;20039;-74
2022/12/08 05:22:35;;;;;;;23.88;11.55;;;3.20;99.90;;;;;;5062494;28;20055;-74
2022/12/08 05:25:01;;;;;;;23.23;10.75;;;3.30;99.90;;;;;;5075526;28;20418;-74
2022/12/08 05:27:27;;;;;;;24.80;10.40;;;3.20;99.90;;;;;;5079541;28;20487;-74
2022/12/08 05:29:53;;;;;;;22.52;10.98;;;3.30;99.90;;;;;;5076096;28;20580;-73
2022/12/08 05:32:19;;;;;;;29.73;11.48;;;3.30;99.90;;;;;;5076076;28;20036;-73
2022/12/08 05:34:44;;;;;;;27.23;10.68;;;3.50;99.90;;;;;;5072308;28;20385;-73
2022/12/08 05:37:10;;;;;;;22.40;9.70;;;3.50;99.90;;;;;;5067946;28;20043;-74
2022/12/08 05:39:36;;;;;;;26.02;11.40;;;3.60;99.90;;;;;;5071169;28;20530;-73
2022/12/08 05:42:02;;;;;;;25.58;11.15;;;3.60;99.90;;;;;;5071174;28;20033;-73
2022/12/08 05:44:28;;;;;;;21.08;10.13;;;3.60;99.90;;;;;;5073948;28;20055;-66
2022/12/08 05:46:54;;;;;;;22.45;10.60;;;3.60;99.80;;;;;;5073705;28;20032;-73
2022/12/08 05:49:20;;;;;;;19.45;10.13;;;3.60;99.90;;;;;;5070835;28;20032;-75
2022/12/08 05:51:45;;;;;;;18.27;9.07;;;3.50;99.90;;;;;;5071768;28;20036;-73
2022/12/08 05:54:13;;;;;;;19.85;10.18;;;3.50;99.90;;;;;;5068946;28;20079;-73
2022/12/08 05:56:38;;;;;;;23.05;11.43;;;3.50;99.90;;;;;;5066339;28;20035;-73
2022/12/08 05:59:07;;;;;;;22.27;10.18;;;3.50;99.90;;;;;;5073925;28;20789;-73
2022/12/08 06:01:34;;;;;;;19.25;10.18;;;3.50;99.90;;;;;;5070564;28;20526;-75
2022/12/08 06:04:01;;;;;;;21.25;10.38;;;3.40;99.90;;;;;;5072890;28;20028;-73
2022/12/08 06:06:28;;;;;;;22.48;9.88;;;3.50;99.90;;;;;;5070547;28;20035;-73
2022/12/08 06:08:54;;;;;;;22.23;8.73;;;3.50;99.90;;;;;;5068409;28;20435;-72
2022/12/08 06:11:28;;;;;;;22.80;10.00;;;3.50;99.70;;;;;;5069627;28;20043;-73
2022/12/08 06:13:55;;;;;;;24.10;9.82;;;3.50;99.90;;;;;;5073711;28;20386;-73
2022/12/08 06:16:22;;;;;;;18.00;8.95;;;3.40;99.90;;;;;;5068860;28;20024;-70
2022/12/08 06:18:48;;;;;;;18.55;9.27;;;3.40;99.90;;;;;;5065141;28;20028;-75
2022/12/08 06:21:15;;;;;;;21.08;9.30;;;3.40;99.90;;;;;;5072622;28;20063;-74
2022/12/08 06:23:42;;;;;;;17.83;8.38;;;3.50;99.90;;;;;;5072190;28;20032;-73
2022/12/08 06:26:10;;;;;;;25.33;9.60;;;3.30;99.90;;;;;;5070363;28;20044;-74
2022/12/08 06:28:36;;;;;;;17.48;9.43;;;3.40;99.90;;;;;;5072434;28;20029;-71
2022/12/08 06:31:07;;;;;;;23.35;10.02;;;3.40;99.90;;;;;;5065610;28;20864;-72
2022/12/08 06:33:33;;;;;;;19.48;9.88;;;3.50;99.80;;;;;;5065010;28;20028;-71
2022/12/08 06:35:59;;;;;;;21.10;9.75;;;3.60;99.70;;;;;;5071731;28;20039;-72
2022/12/08 06:38:25;;;;;;;23.13;9.43;;;3.50;99.80;;;;;;5067472;28;20032;-72
2022/12/08 06:40:57;;;;;;;23.73;9.85;;;3.40;99.90;;;;;;5069002;28;20029;-71
2022/12/08 06:43:26;;;;;;;18.33;9.95;;;3.30;99.90;;;;;;5062862;28;20032;-71
2022/12/08 06:45:52;;;;;;;24.67;11.27;;;3.40;99.90;;;;;;5069286;28;20048;-70
2022/12/08 06:48:18;;;;;;;22.08;10.52;;;3.50;99.90;;;;;;5065628;28;20039;-71
2022/12/08 06:50:45;;;;;;;23.35;10.27;;;3.60;99.90;;;;;;5063133;28;20029;-71
2022/12/08 06:53:14;;;;;;;22.90;11.27;;;3.60;99.90;;;;;;5069804;28;20078;-71
2022/12/08 06:55:51;;;;;;;22.17;10.73;;;3.60;99.90;;;;;;5061925;28;20054;-70
2022/12/08 06:58:18;;;;;;;24.63;11.85;;;3.60;99.90;;;;;;5065410;28;20040;-71
2022/12/08 07:00:44;;;;;;;24.73;10.70;;;3.60;99.90;;;;;;5066457;28;20120;-70
2022/12/08 07:03:11;;;;;;;25.80;10.00;;;3.50;99.90;;;;;;5067763;28;20533;-71
2022/12/08 07:05:37;;;;;;;29.05;12.48;;;3.50;99.90;;;;;;5069459;28;20114;-72
2022/12/08 07:08:05;;;;;;;21.70;10.50;;;3.60;99.90;;;;;;5066007;28;20042;-72
2022/12/08 07:10:32;;;;;;;23.75;10.43;;;3.70;99.90;;;;;;5069299;28;20043;-75
2022/12/08 07:12:58;;;;;;;19.85;9.50;;;3.70;99.90;;;;;;5065309;28;20098;-75
2022/12/08 07:15:23;;;;;;;21.25;10.18;;;3.80;99.90;;;;;;5061051;28;20772;-76
2022/12/08 07:17:49;;;;;;;22.05;9.68;;;3.80;99.60;;;;;;5067409;28;20031;-77
2022/12/08 07:20:15;;;;;;;21.50;10.30;;;3.90;99.50;;;;;;5064082;28;20074;-71
2022/12/08 07:22:48;;;;;;;19.80;9.25;;;3.90;99.50;;;;;;5064363;28;20033;-75
2022/12/08 07:25:14;;;;;;;18.20;8.95;;;3.80;99.50;;;;;;5067371;28;20113;-68
2022/12/08 07:27:39;;;;;;;19.63;9.23;;;3.90;99.40;;;;;;5066772;28;20036;-74
2022/12/08 07:30:06;;;;;;;20.75;9.93;;;4.00;99.30;;;;;;5065701;28;20044;-73
2022/12/08 07:32:32;;;;;;;31.77;13.18;;;4.00;99.00;;;;;;5070424;28;20033;-74
2022/12/08 07:34:58;;;;;;;19.60;8.88;;;4.00;98.90;;;;;;5065878;28;20518;-76
2022/12/08 07:37:23;;;;;;;16.85;9.10;;;4.00;98.60;;;;;;5070271;28;20139;-73
2022/12/08 07:39:49;;;;;;;21.15;8.65;;;4.10;98.80;;;;;;5076933;28;20067;-73
2022/12/08 07:42:15;;;;;;;16.17;8.68;;;4.00;98.90;;;;;;5067443;28;20064;-74
2022/12/08 07:44:45;;;;;;;20.08;8.65;;;4.00;99.10;;;;;;5062554;28;20139;-72
2022/12/08 07:47:11;;;;;;;18.77;9.05;;;4.00;99.00;;;;;;5067473;28;20032;-69
2022/12/08 07:49:36;;;;;;;18.48;8.25;;;4.00;98.90;;;;;;5074099;28;20791;-71
2022/12/08 07:52:02;;;;;;;16.80;9.43;;;3.90;98.90;;;;;;5066688;28;20115;-71
2022/12/08 07:54:28;;;;;;;14.98;8.82;;;4.00;99.30;;;;;;5066845;28;20055;-71
2022/12/08 07:56:57;;;;;;;15.98;8.35;;;4.00;99.00;;;;;;5069444;28;20364;-71
2022/12/08 07:59:22;;;;;;;20.77;8.50;;;4.00;99.10;;;;;;5067012;28;20042;-71
2022/12/08 08:01:50;;;;;;;24.25;9.20;;;4.00;99.20;;;;;;5063834;28;20028;-71
2022/12/08 08:04:16;;;;;;;18.65;9.27;;;4.00;99.10;;;;;;5068537;28;20051;-70
2022/12/08 08:06:42;;;;;;;16.25;8.60;;;4.00;99.10;;;;;;5066102;28;20115;-68
2022/12/08 08:09:09;;;;;;;16.35;8.98;;;3.90;99.40;;;;;;5063435;28;20033;-69
2022/12/08 08:11:35;;;;;;;22.50;10.57;;;4.00;99.40;;;;;;5067038;28;20043;-69
2022/12/08 08:14:02;;;;;;;18.33;8.20;;;4.10;99.10;;;;;;5068617;28;20059;-70
2022/12/08 08:16:28;;;;;;;18.92;9.30;;;4.00;99.10;;;;;;5070599;28;20032;-70
2022/12/08 08:18:54;;;;;;;19.65;8.93;;;4.00;99.30;;;;;;5066792;28;20035;-70
2022/12/08 08:21:20;;;;;;;19.73;9.73;;;4.00;99.00;;;;;;5066688;28;20447;-70
2022/12/08 08:23:45;;;;;;;17.95;9.25;;;4.10;99.00;;;;;;5067740;28;20036;-69
2022/12/08 08:26:11;;;;;;;18.95;8.48;;;4.20;99.00;;;;;;5069016;28;20389;-69
2022/12/08 08:28:37;;;;;;;15.55;8.38;;;4.30;98.50;;;;;;5066495;28;20856;-70
2022/12/08 08:31:04;;;;;;;19.30;8.43;;;4.40;98.50;;;;;;5065757;28;20032;-69
2022/12/08 08:33:30;;;;;;;17.35;8.48;;;4.40;98.30;;;;;;5066855;28;20036;-69
2022/12/08 08:35:56;;;;;;;16.70;8.05;;;4.40;98.10;;;;;;5064756;28;20525;-70
2022/12/08 08:38:22;;;;;;;19.38;8.90;;;4.40;98.20;;;;;;5064574;28;20078;-70
2022/12/08 08:40:48;;;;;;;17.63;9.25;;;4.40;98.40;;;;;;5067667;28;20040;-70
2022/12/08 08:43:30;;;;;;;16.63;9.23;;;4.40;98.30;;;;;;5067344;28;20137;-70
2022/12/08 08:46:00;;;;;;;18.48;8.95;;;4.30;98.40;;;;;;5067940;28;20032;-70
2022/12/08 08:48:28;;;;;;;21.90;9.70;;;4.20;98.70;;;;;;5070918;28;20047;-70
2022/12/08 08:50:55;;;;;;;20.73;10.05;;;4.20;98.90;;;;;;5066552;28;20024;-70
2022/12/08 08:53:21;;;;;;;17.48;9.50;;;4.40;98.80;;;;;;5072124;28;20478;-70
2022/12/08 08:55:48;;;;;;;18.65;9.25;;;4.40;98.40;;;;;;5064222;28;20033;-70
2022/12/08 08:58:14;;;;;;;18.17;8.90;;;4.40;98.20;;;;;;5067987;28;20032;-70
2022/12/08 09:00:40;;;;;;;19.80;8.88;;;4.50;98.00;;;;;;5066898;28;20036;-70
2022/12/08 09:03:05;;;;;;;15.10;9.55;;;4.70;98.10;;;;;;5067391;28;20064;-69
2022/12/08 09:05:31;;;;;;;16.38;8.15;;;4.70;97.60;;;;;;5064434;28;20093;-70
2022/12/08 09:07:57;;;;;;;17.75;8.50;;;4.60;97.80;;;;;;5071701;28;20032;-70
2022/12/08 09:10:23;;;;;;;18.48;8.65;;;4.40;98.10;;;;;;5069384;28;20040;-70
2022/12/08 09:12:48;;;;;;;18.20;8.48;;;4.50;98.40;;;;;;5068651;28;20071;-70
2022/12/08 09:15:14;;;;;;;19.33;8.40;;;4.50;98.30;;;;;;5067037;28;20496;-70
2022/12/08 09:17:40;;;;;;;16.60;8.48;;;4.50;98.10;;;;;;5068644;28;20748;-70
2022/12/08 09:20:07;;;;;;;15.48;8.68;;;4.50;98.00;;;;;;5069837;28;20105;-70
2022/12/08 09:22:32;;;;;;;17.02;8.40;;;4.50;98.30;;;;;;5067777;28;20107;-70
2022/12/08 09:24:58;;;;;;;18.80;9.48;;;4.40;98.20;;;;;;5071000;28;20112;-70
2022/12/08 09:27:24;;;;;;;18.50;8.30;;;4.40;98.70;;;;;;5074830;28;20068;-70
2022/12/08 09:29:50;;;;;;;18.50;8.73;;;4.50;98.60;;;;;;5066939;28;20472;-70
2022/12/08 09:32:15;;;;;;;22.02;8.45;;;4.50;98.50;;;;;;5068750;28;20819;-70
2022/12/08 09:34:41;;;;;;;19.13;9.50;;;4.50;98.50;;;;;;5068764;28;20068;-70
2022/12/08 09:37:07;;;;;;;21.77;11.05;;;4.50;98.80;;;;;;5073483;28;20067;-70
2022/12/08 09:39:33;;;;;;;25.55;9.13;;;4.40;98.60;;;;;;5075721;28;20032;-73
2022/12/08 09:42:05;;;;;;;18.80;9.15;;;4.50;98.90;;;;;;5074321;28;20105;-72
2022/12/08 09:44:34;;;;;;;17.92;8.65;;;4.60;98.60;;;;;;5073534;28;20031;-72
2022/12/08 09:47:02;;;;;;;14.70;7.85;;;4.70;98.10;;;;;;5064674;28;20830;-71
2022/12/08 09:49:40;;;;;;;17.38;8.88;;;4.60;98.30;;;;;;5070434;28;20035;-72
2022/12/08 09:52:17;;;;;;;16.80;8.27;;;4.50;98.50;;;;;;5078227;28;20048;-70
2022/12/08 09:54:43;;;;;;;15.85;8.13;;;4.50;98.70;;;;;;5066986;28;20029;-70
2022/12/08 09:57:15;;;;;;;19.55;8.05;;;4.30;98.90;;;;;;5067334;28;20040;-70
2022/12/08 09:59:46;;;;;;;18.23;9.48;;;4.40;99.10;;;;;;5060187;28;20024;-70
2022/12/08 10:02:21;;;;;;;15.13;8.35;;;4.50;99.10;;;;;;5063416;28;20029;-69
2022/12/08 10:04:47;;;;;;;16.80;8.70;;;4.60;98.80;;;;;;5065934;28;20034;-70
2022/12/08 10:07:20;;;;;;;16.77;7.88;;;4.70;98.80;;;;;;5066904;28;20040;-69
2022/12/08 10:10:01;;;;;;;21.73;8.18;;;4.80;98.50;;;;;;5068434;28;20035;-70
2022/12/08 10:12:38;;;;;;;13.70;7.18;;;4.90;98.30;;;;;;5063685;28;20537;-71
2022/12/08 10:15:18;;;;;;;15.70;7.53;;;4.90;97.70;;;;;;5067302;28;20043;-71
2022/12/08 10:17:47;;;;;;;15.75;7.50;;;4.90;97.90;;;;;;5063060;28;20039;-71
2022/12/08 10:20:16;;;;;;;13.68;7.07;;;4.80;98.10;;;;;;5062835;28;20024;-70
2022/12/08 10:22:45;;;;;;;16.48;7.80;;;4.70;98.00;;;;;;5067133;28;20174;-70
2022/12/08 10:25:47;;;;;;;16.10;8.00;;;4.80;98.40;;;;;;5065798;28;20113;-70
2022/12/08 10:28:14;;;;;;;14.88;8.43;;;4.80;98.40;;;;;;5066572;28;20082;-70
2022/12/08 10:30:40;;;;;;;21.50;9.57;;;4.80;98.50;;;;;;5064213;28;20819;-70
2022/12/08 10:33:16;;;;;;;16.98;8.23;;;4.80;98.80;;;;;;5067515;28;20054;-70
2022/12/08 10:35:45;;;;;;;21.20;8.35;;;4.80;99.30;;;;;;5065833;28;20040;-71
2022/12/08 10:38:22;;;;;;;14.88;8.18;;;4.80;98.70;;;;;;5066049;28;20039;-73
2022/12/08 10:40:50;;;;;;;14.30;8.18;;;5.00;98.80;;;;;;5067219;28;20061;-72
2022/12/08 10:43:23;;;;;;;16.23;7.78;;;5.00;98.40;;;;;;5070401;28;20036;-72
2022/12/08 10:45:50;;;;;;;16.50;8.32;;;5.00;98.30;;;;;;5068805;28;20050;-71
2022/12/08 10:48:24;;;;;;;15.57;8.13;;;5.00;98.40;;;;;;5072225;28;20044;-72
2022/12/08 10:50:58;;;;;;;15.15;8.23;;;5.00;98.50;;;;;;5067279;28;20056;-73
2022/12/08 10:53:26;;;;;;;19.70;8.25;;;5.20;98.40;;;;;;5069871;28;20036;-73
2022/12/08 10:56:05;;;;;;;15.02;8.27;;;5.20;98.20;;;;;;5067212;28;20381;-72
2022/12/08 10:58:39;;;;;;;12.75;8.38;;;5.30;98.30;;;;;;5070046;28;20107;-72
2022/12/08 11:01:15;;;;;;;14.70;7.68;;;5.40;98.30;;;;;;5066987;28;20028;-72
2022/12/08 11:03:58;;;;;;;17.30;7.88;;;5.30;98.00;;;;;;5064979;28;20029;-72
2022/12/08 11:06:27;;;;;;;13.75;8.35;;;5.30;98.20;;;;;;5069233;28;20036;-72
2022/12/08 11:08:56;;;;;;;16.77;9.02;;;5.00;98.20;;;;;;5068458;28;20029;-72
2022/12/08 11:11:38;;;;;;;21.83;9.00;;;4.80;99.20;;;;;;5075195;28;20039;-72
2022/12/08 11:14:07;;;;;;;20.48;9.63;;;4.70;99.40;;;;;;5077200;28;20032;-72
2022/12/08 11:16:34;;;;;;;16.70;9.48;;;4.80;99.70;;;;;;5070457;28;20061;-72
2022/12/08 11:19:05;;;;;;;16.65;9.07;;;5.00;99.40;;;;;;5078723;28;20502;-72
2022/12/08 11:21:36;;;;;;;19.40;9.30;;;5.10;99.30;;;;;;5069295;28;20027;-72
2022/12/08 11:24:14;;;;;;;17.90;8.75;;;5.20;98.90;;;;;;5073595;28;20047;-73
2022/12/08 11:26:46;;;;;;;21.45;8.85;;;5.30;98.70;;;;;;5079642;28;20084;-72
2022/12/08 11:29:12;;;;;;;21.45;8.88;;;5.20;98.70;;;;;;5079702;28;20403;-70
2022/12/08 11:31:59;;;;;;;19.63;8.50;;;5.10;98.70;;;;;;5067249;28;20068;-70
2022/12/08 11:34:44;;;;;;;13.00;7.75;;;5.10;99.00;;;;;;5071274;28;20837;-70
2022/12/08 11:37:20;;;;;;;17.08;7.70;;;5.10;99.30;;;;;;5066683;28;20032;-70
2022/12/08 11:39:51;;;;;;;21.55;8.10;;;5.10;99.00;;;;;;5076229;28;20441;-69
2022/12/08 11:42:20;;;;;;;14.85;7.45;;;5.10;99.10;;;;;;5065737;28;20055;-72
2022/12/08 11:44:54;;;;;;;16.20;9.23;;;5.20;99.20;;;;;;5069484;28;20055;-72
2022/12/08 11:47:41;;;;;;;17.23;7.78;;;5.30;98.80;;;;;;5065322;28;20040;-68
2022/12/08 11:50:25;;;;;;;13.80;7.68;;;5.30;98.70;;;;;;5069666;28;20044;-72
2022/12/08 11:52:52;;;;;;;18.23;9.40;;;5.40;98.60;;;;;;5071645;28;20032;-72
2022/12/08 11:55:38;;;;;;;18.73;8.40;;;5.40;98.60;;;;;;5066545;28;20036;-72
2022/12/08 11:58:13;;;;;;;;;;;5.30;98.30;;;;;;5074358;28;20032;-72
2022/12/08 12:00:39;;;;;;;20.30;8.45;;;5.40;98.50;;;;;;5070813;28;19912;-73
2022/12/08 12:03:17;;;;;;;16.75;8.88;;;5.30;98.60;;;;;;5072355;28;20032;-72
2022/12/08 12:06:08;;;;;;;14.93;8.18;;;5.40;98.40;;;;;;5071080;28;20071;-69
2022/12/08 12:08:49;;;;;;;17.90;8.25;;;5.40;98.20;;;;;;5071280;28;20071;-71
2022/12/08 12:15:05;;;;;;;15.77;8.27;;;5.60;98.20;;;;;;5064824;28;20043;-72
2022/12/08 12:18:10;;;;;;;13.63;7.60;;;5.70;97.90;;;;;;5070645;28;20568;-67
2022/12/08 12:21:01;;;;;;;12.98;6.65;;;5.80;97.70;;;;;;5071863;28;20036;-70
2022/12/08 12:23:50;;;;;;;14.10;7.07;;;5.80;97.50;;;;;;5068534;28;20032;-74
2022/12/08 12:26:29;;;;;;;14.23;7.68;;;6.00;97.40;;;;;;5067727;28;20512;-73
2022/12/08 12:28:59;;;;;;;16.90;8.13;;;6.10;97.00;;;;;;5067882;28;20114;-74
2022/12/08 12:31:35;;;;;;;14.90;6.90;;;6.10;96.40;;;;;;5073479;28;20061;-71
2022/12/08 12:34:22;;;;;;;14.10;8.13;;;6.10;96.40;;;;;;5074384;28;20123;-72
2022/12/08 12:36:53;;;;;;;17.95;8.18;;;6.10;96.50;;;;;;5068696;28;20032;-72
2022/12/08 12:39:23;;;;;;;16.35;7.72;;;6.00;96.60;;;;;;5069202;28;20024;-73
2022/12/08 12:41:55;;;;;;;12.50;7.57;;;6.00;96.90;;;;;;5067144;28;20024;-72
2022/12/08 12:44:39;;;;;;;14.38;8.38;;;6.00;97.00;;;;;;5066132;28;20489;-72
2022/12/08 12:47:11;;;;;;;15.52;8.27;;;6.00;97.00;;;;;;5070248;28;20721;-72
2022/12/08 12:49:39;;;;;;;17.73;8.40;;;5.90;97.10;;;;;;5071086;28;20039;-71
2022/12/08 12:52:17;;;;;;;14.98;7.85;;;5.80;97.20;;;;;;5075169;28;20381;-74
2022/12/08 12:55:04;;;;;;;15.38;8.45;;;5.90;97.30;;;;;;5067239;28;20042;-72
2022/12/08 12:57:39;;;;;;;28.23;12.82;;;6.00;97.20;;;;;;5066330;28;20067;-74
2022/12/08 13:00:06;;;;;;;30.48;15.57;;;5.90;97.20;;;;;;5070192;28;20115;-73
2022/12/08 13:02:35;;;;;;;16.95;11.77;;;5.90;97.30;;;;;;5071828;28;20056;-70
2022/12/08 13:05:14;;;;;;;17.92;13.10;;;5.80;97.40;;;;;;5071811;28;20040;-68
2022/12/08 13:08:06;;;;;;;20.13;10.63;;;5.80;97.20;;;;;;5070419;28;20138;-77
2022/12/08 13:10:32;;;;;;;17.38;7.85;;;5.80;97.50;;;;;;5064811;28;20133;-74
2022/12/08 13:13:17;;;;;;;33.67;16.40;;;5.70;97.50;;;;;;5074124;28;20025;-74